sensor_id;sensor_type;location;lat;lon;timestamp;P1;durP1;ratioP1;P2;durP2;ratioP2
8159;SDS011;27404;52.398;9.646;2022-07-11T00:02:03;1.17;;;0.90;;
8159;SDS011;27404;52.398;9.646;2022-07-11T00:04:29;1.37;;;0.83;;
8159;SDS011;27404;52.398;9.646;2022-07-11T00:06:55;1.77;;;1.07;;
8159;SDS011;27404;52.398;9.646;2022-07-11T00:09:21;3.23;;;0.93;;
8159;SDS011;27404;52.398;9.646;2022-07-11T00:11:46;2.90;;;1.40;;
8159;SDS011;27404;52.398;9.646;2022-07-11T00:14:13;4.50;;;1.90;;
8159;SDS011;27404;52.398;9.646;2022-07-11T00:16:39;3.20;;;1.23;;
8159;SDS011;27404;52.398;9.646;2022-07-11T00:19:04;2.60;;;1.30;;
8159;SDS011;27404;52.398;9.646;2022-07-11T00:21:31;6.30;;;1.47;;
8159;SDS011;27404;52.398;9.646;2022-07-11T00:23:57;3.13;;;1.40;;
8159;SDS011;27404;52.398;9.646;2022-07-11T00:26:22;2.20;;;1.40;;
8159;SDS011;27404;52.398;9.646;2022-07-11T00:28:47;2.83;;;1.40;;
8159;SDS011;27404;52.398;9.646;2022-07-11T00:31:13;2.43;;;1.50;;
8159;SDS011;27404;52.398;9.646;2022-07-11T00:33:38;3.53;;;1.93;;
8159;SDS011;27404;52.398;9.646;2022-07-11T00:36:04;2.70;;;1.50;;
8159;SDS011;27404;52.398;9.646;2022-07-11T00:38:29;3.43;;;1.57;;
8159;SDS011;27404;52.398;9.646;2022-07-11T00:40:55;3.73;;;1.47;;
8159;SDS011;27404;52.398;9.646;2022-07-11T00:43:28;1.90;;;1.20;;
8159;SDS011;27404;52.398;9.646;2022-07-11T00:45:58;2.53;;;2.00;;
8159;SDS011;27404;52.398;9.646;2022-07-11T00:48:24;4.03;;;1.83;;
8159;SDS011;27404;52.398;9.646;2022-07-11T00:50:50;3.83;;;1.70;;
8159;SDS011;27404;52.398;9.646;2022-07-11T00:53:16;3.77;;;2.03;;
8159;SDS011;27404;52.398;9.646;2022-07-11T00:55:42;6.17;;;2.30;;
8159;SDS011;27404;52.398;9.646;2022-07-11T00:58:08;2.87;;;1.67;;
8159;SDS011;27404;52.398;9.646;2022-07-11T01:00:33;5.93;;;2.00;;
8159;SDS011;27404;52.398;9.646;2022-07-11T01:02:58;1.87;;;1.60;;
8159;SDS011;27404;52.398;9.646;2022-07-11T01:05:24;4.07;;;1.90;;
8159;SDS011;27404;52.398;9.646;2022-07-11T01:07:50;3.27;;;1.70;;
8159;SDS011;27404;52.398;9.646;2022-07-11T01:10:15;3.87;;;1.90;;
8159;SDS011;27404;52.398;9.646;2022-07-11T01:12:41;2.00;;;1.80;;
8159;SDS011;27404;52.398;9.646;2022-07-11T01:15:06;3.10;;;1.80;;
8159;SDS011;27404;52.398;9.646;2022-07-11T01:17:35;2.07;;;1.77;;
8159;SDS011;27404;52.398;9.646;2022-07-11T01:20:00;6.07;;;1.90;;
8159;SDS011;27404;52.398;9.646;2022-07-11T01:22:27;4.20;;;2.10;;
8159;SDS011;27404;52.398;9.646;2022-07-11T01:24:53;3.03;;;2.00;;
8159;SDS011;27404;52.398;9.646;2022-07-11T01:27:20;2.30;;;1.80;;
8159;SDS011;27404;52.398;9.646;2022-07-11T01:29:47;3.17;;;1.97;;
8159;SDS011;27404;52.398;9.646;2022-07-11T01:32:13;3.47;;;2.10;;
8159;SDS011;27404;52.398;9.646;2022-07-11T01:34:38;3.37;;;2.40;;
8159;SDS011;27404;52.398;9.646;2022-07-11T01:37:03;3.33;;;1.90;;
8159;SDS011;27404;52.398;9.646;2022-07-11T01:39:29;3.50;;;2.07;;
8159;SDS011;27404;52.398;9.646;2022-07-11T01:41:56;3.90;;;1.77;;
8159;SDS011;27404;52.398;9.646;2022-07-11T01:44:22;3.87;;;2.03;;
8159;SDS011;27404;52.398;9.646;2022-07-11T01:46:48;3.60;;;2.17;;
8159;SDS011;27404;52.398;9.646;2022-07-11T01:49:13;4.60;;;2.30;;
8159;SDS011;27404;52.398;9.646;2022-07-11T01:51:40;7.40;;;2.50;;
8159;SDS011;27404;52.398;9.646;2022-07-11T01:54:06;2.97;;;1.70;;
8159;SDS011;27404;52.398;9.646;2022-07-11T01:56:32;4.27;;;2.03;;
8159;SDS011;27404;52.398;9.646;2022-07-11T01:58:58;3.67;;;2.27;;
8159;SDS011;27404;52.398;9.646;2022-07-11T02:01:24;2.80;;;2.10;;
8159;SDS011;27404;52.398;9.646;2022-07-11T02:03:50;4.97;;;2.20;;
8159;SDS011;27404;52.398;9.646;2022-07-11T02:06:16;4.80;;;2.60;;
8159;SDS011;27404;52.398;9.646;2022-07-11T02:08:41;4.70;;;2.50;;
8159;SDS011;27404;52.398;9.646;2022-07-11T02:11:07;4.80;;;2.50;;
8159;SDS011;27404;52.398;9.646;2022-07-11T02:13:32;5.33;;;2.60;;
8159;SDS011;27404;52.398;9.646;2022-07-11T02:15:58;3.00;;;2.27;;
8159;SDS011;27404;52.398;9.646;2022-07-11T02:18:23;5.70;;;2.73;;
8159;SDS011;27404;52.398;9.646;2022-07-11T02:20:49;4.23;;;2.57;;
8159;SDS011;27404;52.398;9.646;2022-07-11T02:23:14;3.93;;;2.27;;
8159;SDS011;27404;52.398;9.646;2022-07-11T02:25:41;6.00;;;2.47;;
8159;SDS011;27404;52.398;9.646;2022-07-11T02:28:07;3.77;;;2.20;;
8159;SDS011;27404;52.398;9.646;2022-07-11T02:30:34;3.63;;;2.50;;
8159;SDS011;27404;52.398;9.646;2022-07-11T02:33:07;5.23;;;3.13;;
8159;SDS011;27404;52.398;9.646;2022-07-11T02:35:33;4.60;;;2.27;;
8159;SDS011;27404;52.398;9.646;2022-07-11T02:38:00;3.77;;;2.67;;
8159;SDS011;27404;52.398;9.646;2022-07-11T02:40:26;5.17;;;2.60;;
8159;SDS011;27404;52.398;9.646;2022-07-11T02:42:52;4.57;;;2.60;;
8159;SDS011;27404;52.398;9.646;2022-07-11T02:45:18;4.30;;;2.90;;
8159;SDS011;27404;52.398;9.646;2022-07-11T02:47:44;6.23;;;3.33;;
8159;SDS011;27404;52.398;9.646;2022-07-11T02:50:11;3.60;;;2.60;;
8159;SDS011;27404;52.398;9.646;2022-07-11T02:52:38;4.07;;;2.80;;
8159;SDS011;27404;52.398;9.646;2022-07-11T02:55:05;4.17;;;2.47;;
8159;SDS011;27404;52.398;9.646;2022-07-11T02:57:32;4.80;;;2.87;;
8159;SDS011;27404;52.398;9.646;2022-07-11T02:59:58;3.87;;;2.93;;
8159;SDS011;27404;52.398;9.646;2022-07-11T03:02:23;7.33;;;3.43;;
8159;SDS011;27404;52.398;9.646;2022-07-11T03:04:49;6.43;;;3.00;;
8159;SDS011;27404;52.398;9.646;2022-07-11T03:07:14;5.17;;;3.20;;
8159;SDS011;27404;52.398;9.646;2022-07-11T03:09:41;6.17;;;3.40;;
8159;SDS011;27404;52.398;9.646;2022-07-11T03:12:07;3.57;;;3.03;;
8159;SDS011;27404;52.398;9.646;2022-07-11T03:14:32;6.00;;;2.77;;
8159;SDS011;27404;52.398;9.646;2022-07-11T03:16:58;5.50;;;2.87;;
8159;SDS011;27404;52.398;9.646;2022-07-11T03:19:23;4.70;;;2.93;;
8159;SDS011;27404;52.398;9.646;2022-07-11T03:21:49;7.33;;;3.37;;
8159;SDS011;27404;52.398;9.646;2022-07-11T03:24:14;6.77;;;3.40;;
8159;SDS011;27404;52.398;9.646;2022-07-11T03:26:39;5.20;;;3.40;;
8159;SDS011;27404;52.398;9.646;2022-07-11T03:29:05;4.20;;;3.50;;
8159;SDS011;27404;52.398;9.646;2022-07-11T03:31:33;5.20;;;3.20;;
8159;SDS011;27404;52.398;9.646;2022-07-11T03:33:58;5.17;;;3.40;;
8159;SDS011;27404;52.398;9.646;2022-07-11T03:36:24;5.27;;;3.73;;
8159;SDS011;27404;52.398;9.646;2022-07-11T03:38:49;5.23;;;3.43;;
8159;SDS011;27404;52.398;9.646;2022-07-11T03:41:15;5.90;;;3.30;;
8159;SDS011;27404;52.398;9.646;2022-07-11T03:43:41;9.07;;;4.17;;
8159;SDS011;27404;52.398;9.646;2022-07-11T03:46:06;6.00;;;3.10;;
8159;SDS011;27404;52.398;9.646;2022-07-11T03:48:32;6.00;;;4.53;;
8159;SDS011;27404;52.398;9.646;2022-07-11T03:50:57;6.87;;;4.33;;
8159;SDS011;27404;52.398;9.646;2022-07-11T03:53:23;5.33;;;3.60;;
8159;SDS011;27404;52.398;9.646;2022-07-11T03:55:48;5.07;;;3.83;;
8159;SDS011;27404;52.398;9.646;2022-07-11T03:58:14;6.00;;;4.57;;
8159;SDS011;27404;52.398;9.646;2022-07-11T04:00:39;5.37;;;4.00;;
8159;SDS011;27404;52.398;9.646;2022-07-11T04:03:05;6.03;;;3.57;;
8159;SDS011;27404;52.398;9.646;2022-07-11T04:05:31;7.27;;;3.87;;
8159;SDS011;27404;52.398;9.646;2022-07-11T04:07:56;8.07;;;4.10;;
8159;SDS011;27404;52.398;9.646;2022-07-11T04:10:22;5.50;;;3.53;;
8159;SDS011;27404;52.398;9.646;2022-07-11T04:12:48;5.63;;;3.73;;
8159;SDS011;27404;52.398;9.646;2022-07-11T04:15:14;7.43;;;4.67;;
8159;SDS011;27404;52.398;9.646;2022-07-11T04:17:39;7.07;;;4.13;;
8159;SDS011;27404;52.398;9.646;2022-07-11T04:20:05;5.00;;;3.10;;
8159;SDS011;27404;52.398;9.646;2022-07-11T04:22:31;7.43;;;3.80;;
8159;SDS011;27404;52.398;9.646;2022-07-11T04:24:56;6.07;;;4.27;;
8159;SDS011;27404;52.398;9.646;2022-07-11T04:27:22;7.73;;;3.83;;
8159;SDS011;27404;52.398;9.646;2022-07-11T04:29:49;9.40;;;4.17;;
8159;SDS011;27404;52.398;9.646;2022-07-11T04:32:15;6.47;;;4.17;;
8159;SDS011;27404;52.398;9.646;2022-07-11T04:34:40;8.80;;;4.40;;
8159;SDS011;27404;52.398;9.646;2022-07-11T04:37:06;8.50;;;4.33;;
8159;SDS011;27404;52.398;9.646;2022-07-11T04:39:31;9.30;;;4.60;;
8159;SDS011;27404;52.398;9.646;2022-07-11T04:42:00;9.00;;;4.10;;
8159;SDS011;27404;52.398;9.646;2022-07-11T04:44:28;6.40;;;4.20;;
8159;SDS011;27404;52.398;9.646;2022-07-11T04:46:54;5.50;;;4.50;;
8159;SDS011;27404;52.398;9.646;2022-07-11T04:49:20;6.70;;;4.40;;
8159;SDS011;27404;52.398;9.646;2022-07-11T04:51:46;7.67;;;4.43;;
8159;SDS011;27404;52.398;9.646;2022-07-11T04:54:12;7.70;;;4.20;;
8159;SDS011;27404;52.398;9.646;2022-07-11T04:56:37;6.53;;;4.33;;
8159;SDS011;27404;52.398;9.646;2022-07-11T04:59:03;4.70;;;3.90;;
8159;SDS011;27404;52.398;9.646;2022-07-11T05:01:29;7.07;;;3.70;;
8159;SDS011;27404;52.398;9.646;2022-07-11T05:03:55;4.73;;;3.60;;
8159;SDS011;27404;52.398;9.646;2022-07-11T05:06:21;7.37;;;3.67;;
8159;SDS011;27404;52.398;9.646;2022-07-11T05:08:46;3.63;;;3.10;;
8159;SDS011;27404;52.398;9.646;2022-07-11T05:11:12;4.30;;;2.77;;
8159;SDS011;27404;52.398;9.646;2022-07-11T05:13:38;4.83;;;2.53;;
8159;SDS011;27404;52.398;9.646;2022-07-11T05:16:04;5.30;;;3.40;;
8159;SDS011;27404;52.398;9.646;2022-07-11T05:18:30;4.10;;;3.13;;
8159;SDS011;27404;52.398;9.646;2022-07-11T05:20:56;5.20;;;3.10;;
8159;SDS011;27404;52.398;9.646;2022-07-11T05:23:22;4.47;;;2.90;;
8159;SDS011;27404;52.398;9.646;2022-07-11T05:25:48;7.93;;;3.30;;
8159;SDS011;27404;52.398;9.646;2022-07-11T05:28:13;3.87;;;2.20;;
8159;SDS011;27404;52.398;9.646;2022-07-11T05:30:38;3.73;;;2.40;;
8159;SDS011;27404;52.398;9.646;2022-07-11T05:33:04;4.97;;;2.60;;
8159;SDS011;27404;52.398;9.646;2022-07-11T05:35:29;4.03;;;2.40;;
8159;SDS011;27404;52.398;9.646;2022-07-11T05:37:55;5.83;;;2.23;;
8159;SDS011;27404;52.398;9.646;2022-07-11T05:40:20;3.77;;;2.13;;
8159;SDS011;27404;52.398;9.646;2022-07-11T05:42:46;3.23;;;1.67;;
8159;SDS011;27404;52.398;9.646;2022-07-11T05:45:12;4.80;;;1.83;;
8159;SDS011;27404;52.398;9.646;2022-07-11T05:47:37;3.93;;;1.80;;
8159;SDS011;27404;52.398;9.646;2022-07-11T05:50:03;2.70;;;2.00;;
8159;SDS011;27404;52.398;9.646;2022-07-11T05:52:29;2.83;;;1.50;;
8159;SDS011;27404;52.398;9.646;2022-07-11T05:54:55;2.97;;;1.57;;
8159;SDS011;27404;52.398;9.646;2022-07-11T05:57:20;2.87;;;1.50;;
8159;SDS011;27404;52.398;9.646;2022-07-11T05:59:46;3.90;;;0.93;;
8159;SDS011;27404;52.398;9.646;2022-07-11T06:02:11;3.40;;;1.00;;
8159;SDS011;27404;52.398;9.646;2022-07-11T06:04:37;4.10;;;1.23;;
8159;SDS011;27404;52.398;9.646;2022-07-11T06:07:03;2.10;;;1.10;;
8159;SDS011;27404;52.398;9.646;2022-07-11T06:09:28;2.28;;;1.00;;
8159;SDS011;27404;52.398;9.646;2022-07-11T06:11:55;2.33;;;0.80;;
8159;SDS011;27404;52.398;9.646;2022-07-11T06:14:20;2.75;;;0.93;;
8159;SDS011;27404;52.398;9.646;2022-07-11T06:16:46;2.22;;;0.80;;
8159;SDS011;27404;52.398;9.646;2022-07-11T06:19:12;1.70;;;0.75;;
8159;SDS011;27404;52.398;9.646;2022-07-11T06:21:39;2.60;;;1.00;;
8159;SDS011;27404;52.398;9.646;2022-07-11T06:24:05;3.83;;;0.90;;
8159;SDS011;27404;52.398;9.646;2022-07-11T06:26:31;2.53;;;0.83;;
8159;SDS011;27404;52.398;9.646;2022-07-11T06:28:56;2.53;;;1.20;;
8159;SDS011;27404;52.398;9.646;2022-07-11T06:31:22;2.20;;;1.07;;
8159;SDS011;27404;52.398;9.646;2022-07-11T06:33:47;1.87;;;1.10;;
8159;SDS011;27404;52.398;9.646;2022-07-11T06:36:19;2.20;;;0.90;;
8159;SDS011;27404;52.398;9.646;2022-07-11T06:38:51;4.00;;;1.03;;
8159;SDS011;27404;52.398;9.646;2022-07-11T06:41:17;1.60;;;1.20;;
8159;SDS011;27404;52.398;9.646;2022-07-11T06:43:43;2.27;;;0.97;;
8159;SDS011;27404;52.398;9.646;2022-07-11T06:46:09;1.30;;;1.17;;
8159;SDS011;27404;52.398;9.646;2022-07-11T06:48:34;1.30;;;0.87;;
8159;SDS011;27404;52.398;9.646;2022-07-11T06:51:00;1.67;;;1.13;;
8159;SDS011;27404;52.398;9.646;2022-07-11T06:53:26;1.67;;;1.00;;
8159;SDS011;27404;52.398;9.646;2022-07-11T06:55:51;2.30;;;1.20;;
8159;SDS011;27404;52.398;9.646;2022-07-11T06:58:17;1.40;;;1.03;;
8159;SDS011;27404;52.398;9.646;2022-07-11T07:00:58;2.10;;;1.20;;
8159;SDS011;27404;52.398;9.646;2022-07-11T07:03:25;2.97;;;1.00;;
8159;SDS011;27404;52.398;9.646;2022-07-11T07:05:51;1.47;;;1.03;;
8159;SDS011;27404;52.398;9.646;2022-07-11T07:08:20;3.80;;;1.00;;
8159;SDS011;27404;52.398;9.646;2022-07-11T07:10:46;2.93;;;0.90;;
8159;SDS011;27404;52.398;9.646;2022-07-11T07:13:11;2.20;;;1.00;;
8159;SDS011;27404;52.398;9.646;2022-07-11T07:15:37;1.57;;;0.90;;
8159;SDS011;27404;52.398;9.646;2022-07-11T07:18:02;3.00;;;0.90;;
8159;SDS011;27404;52.398;9.646;2022-07-11T07:20:28;1.20;;;0.80;;
8159;SDS011;27404;52.398;9.646;2022-07-11T07:22:54;2.13;;;0.90;;
8159;SDS011;27404;52.398;9.646;2022-07-11T07:25:19;2.17;;;1.00;;
8159;SDS011;27404;52.398;9.646;2022-07-11T07:27:45;1.30;;;0.70;;
8159;SDS011;27404;52.398;9.646;2022-07-11T07:30:10;1.80;;;0.90;;
8159;SDS011;27404;52.398;9.646;2022-07-11T07:32:36;1.17;;;0.93;;
8159;SDS011;27404;52.398;9.646;2022-07-11T07:35:02;2.33;;;0.90;;
8159;SDS011;27404;52.398;9.646;2022-07-11T07:37:28;3.47;;;1.23;;
8159;SDS011;27404;52.398;9.646;2022-07-11T07:39:53;2.93;;;0.90;;
8159;SDS011;27404;52.398;9.646;2022-07-11T07:42:19;2.73;;;2.13;;
8159;SDS011;27404;52.398;9.646;2022-07-11T07:44:44;4.80;;;0.90;;
8159;SDS011;27404;52.398;9.646;2022-07-11T07:47:10;3.13;;;0.90;;
8159;SDS011;27404;52.398;9.646;2022-07-11T07:49:35;5.83;;;1.10;;
8159;SDS011;27404;52.398;9.646;2022-07-11T07:52:00;2.30;;;1.07;;
8159;SDS011;27404;52.398;9.646;2022-07-11T07:54:26;2.80;;;0.90;;
8159;SDS011;27404;52.398;9.646;2022-07-11T07:56:51;2.93;;;0.70;;
8159;SDS011;27404;52.398;9.646;2022-07-11T07:59:17;5.87;;;1.27;;
8159;SDS011;27404;52.398;9.646;2022-07-11T08:01:42;1.70;;;0.80;;
8159;SDS011;27404;52.398;9.646;2022-07-11T08:04:10;3.97;;;1.00;;
8159;SDS011;27404;52.398;9.646;2022-07-11T08:06:37;2.10;;;0.70;;
8159;SDS011;27404;52.398;9.646;2022-07-11T08:09:03;1.63;;;0.70;;
8159;SDS011;27404;52.398;9.646;2022-07-11T08:11:30;1.97;;;1.00;;
8159;SDS011;27404;52.398;9.646;2022-07-11T08:13:56;2.00;;;1.00;;
8159;SDS011;27404;52.398;9.646;2022-07-11T08:16:23;1.97;;;1.00;;
8159;SDS011;27404;52.398;9.646;2022-07-11T08:18:49;1.67;;;1.00;;
8159;SDS011;27404;52.398;9.646;2022-07-11T08:21:14;3.70;;;0.50;;
8159;SDS011;27404;52.398;9.646;2022-07-11T08:23:40;2.53;;;0.70;;
8159;SDS011;27404;52.398;9.646;2022-07-11T08:26:05;4.10;;;0.83;;
8159;SDS011;27404;52.398;9.646;2022-07-11T08:28:31;3.57;;;1.03;;
8159;SDS011;27404;52.398;9.646;2022-07-11T08:30:56;2.63;;;0.60;;
8159;SDS011;27404;52.398;9.646;2022-07-11T08:33:22;1.20;;;0.63;;
8159;SDS011;27404;52.398;9.646;2022-07-11T08:35:47;1.70;;;0.70;;
8159;SDS011;27404;52.398;9.646;2022-07-11T08:38:13;1.03;;;0.80;;
8159;SDS011;27404;52.398;9.646;2022-07-11T08:40:41;1.93;;;0.60;;
8159;SDS011;27404;52.398;9.646;2022-07-11T08:43:14;2.13;;;0.90;;
8159;SDS011;27404;52.398;9.646;2022-07-11T08:45:41;3.30;;;0.70;;
8159;SDS011;27404;52.398;9.646;2022-07-11T08:48:07;2.17;;;0.70;;
8159;SDS011;27404;52.398;9.646;2022-07-11T08:50:36;1.17;;;0.60;;
8159;SDS011;27404;52.398;9.646;2022-07-11T08:53:04;2.67;;;0.70;;
8159;SDS011;27404;52.398;9.646;2022-07-11T08:55:30;1.67;;;0.80;;
8159;SDS011;27404;52.398;9.646;2022-07-11T08:57:56;2.53;;;0.80;;
8159;SDS011;27404;52.398;9.646;2022-07-11T09:00:22;1.33;;;0.60;;
8159;SDS011;27404;52.398;9.646;2022-07-11T09:02:47;3.40;;;0.70;;
8159;SDS011;27404;52.398;9.646;2022-07-11T09:05:14;11.07;;;0.90;;
8159;SDS011;27404;52.398;9.646;2022-07-11T09:07:44;4.03;;;0.80;;
8159;SDS011;27404;52.398;9.646;2022-07-11T09:10:14;4.13;;;0.80;;
8159;SDS011;27404;52.398;9.646;2022-07-11T09:13:02;2.13;;;0.60;;
8159;SDS011;27404;52.398;9.646;2022-07-11T09:18:03;1.37;;;0.57;;
8159;SDS011;27404;52.398;9.646;2022-07-11T09:20:42;1.02;;;0.40;;
8159;SDS011;27404;52.398;9.646;2022-07-11T09:23:43;1.65;;;0.52;;
8159;SDS011;27404;52.398;9.646;2022-07-11T09:26:29;2.63;;;0.57;;
8159;SDS011;27404;52.398;9.646;2022-07-11T09:29:44;1.60;;;0.50;;
8159;SDS011;27404;52.398;9.646;2022-07-11T09:31:52;2.38;;;0.57;;
8159;SDS011;27404;52.398;9.646;2022-07-11T09:34:18;1.77;;;0.60;;
8159;SDS011;27404;52.398;9.646;2022-07-11T09:39:23;2.42;;;0.70;;
8159;SDS011;27404;52.398;9.646;2022-07-11T09:41:50;0.63;;;0.40;;
8159;SDS011;27404;52.398;9.646;2022-07-11T09:46:44;0.95;;;0.55;;
8159;SDS011;27404;52.398;9.646;2022-07-11T09:49:15;1.15;;;0.70;;
8159;SDS011;27404;52.398;9.646;2022-07-11T09:51:41;0.85;;;0.50;;
8159;SDS011;27404;52.398;9.646;2022-07-11T09:54:08;1.65;;;0.85;;
8159;SDS011;27404;52.398;9.646;2022-07-11T09:59:09;0.82;;;0.60;;
8159;SDS011;27404;52.398;9.646;2022-07-11T10:01:35;2.78;;;0.70;;
8159;SDS011;27404;52.398;9.646;2022-07-11T10:04:04;1.30;;;0.98;;
8159;SDS011;27404;52.398;9.646;2022-07-11T10:06:31;2.05;;;1.00;;
8159;SDS011;27404;52.398;9.646;2022-07-11T10:08:57;1.33;;;0.90;;
8159;SDS011;27404;52.398;9.646;2022-07-11T10:11:24;1.52;;;1.00;;
8159;SDS011;27404;52.398;9.646;2022-07-11T10:13:50;1.45;;;0.90;;
8159;SDS011;27404;52.398;9.646;2022-07-11T10:24:34;0.90;;;0.60;;
8159;SDS011;27404;52.398;9.646;2022-07-11T10:29:51;1.15;;;0.57;;
8159;SDS011;27404;52.398;9.646;2022-07-11T10:32:17;1.40;;;0.80;;
8159;SDS011;27404;52.398;9.646;2022-07-11T10:34:44;0.52;;;0.50;;
8159;SDS011;27404;52.398;9.646;2022-07-11T10:37:12;2.28;;;0.77;;
8159;SDS011;27404;52.398;9.646;2022-07-11T10:39:39;0.82;;;0.60;;
8159;SDS011;27404;52.398;9.646;2022-07-11T10:42:21;0.90;;;0.65;;
8159;SDS011;27404;52.398;9.646;2022-07-11T10:44:50;1.65;;;0.80;;
8159;SDS011;27404;52.398;9.646;2022-07-11T10:52:57;0.68;;;0.50;;
8159;SDS011;27404;52.398;9.646;2022-07-11T10:55:31;1.77;;;0.90;;
8159;SDS011;27404;52.398;9.646;2022-07-11T10:58:25;1.00;;;0.50;;
8159;SDS011;27404;52.398;9.646;2022-07-11T11:00:49;1.27;;;0.63;;
8159;SDS011;27404;52.398;9.646;2022-07-11T11:03:42;1.10;;;0.50;;
8159;SDS011;27404;52.398;9.646;2022-07-11T11:06:08;1.02;;;0.60;;
8159;SDS011;27404;52.398;9.646;2022-07-11T11:16:43;0.87;;;0.43;;
8159;SDS011;27404;52.398;9.646;2022-07-11T11:22:13;0.87;;;0.40;;
8159;SDS011;27404;52.398;9.646;2022-07-11T11:24:40;0.40;;;0.40;;
8159;SDS011;27404;52.398;9.646;2022-07-11T11:27:18;0.53;;;0.47;;
8159;SDS011;27404;52.398;9.646;2022-07-11T11:29:47;1.80;;;0.43;;
8159;SDS011;27404;52.398;9.646;2022-07-11T11:32:14;0.60;;;0.43;;
8159;SDS011;27404;52.398;9.646;2022-07-11T11:34:40;0.50;;;0.40;;
8159;SDS011;27404;52.398;9.646;2022-07-11T11:37:08;1.20;;;0.40;;
8159;SDS011;27404;52.398;9.646;2022-07-11T11:39:34;1.00;;;0.45;;
8159;SDS011;27404;52.398;9.646;2022-07-11T11:42:04;0.45;;;0.32;;
8159;SDS011;27404;52.398;9.646;2022-07-11T11:44:32;1.27;;;0.40;;
8159;SDS011;27404;52.398;9.646;2022-07-11T11:46:58;1.85;;;0.40;;
8159;SDS011;27404;52.398;9.646;2022-07-11T11:49:24;0.55;;;0.47;;
8159;SDS011;27404;52.398;9.646;2022-07-11T11:51:49;0.50;;;0.35;;
8159;SDS011;27404;52.398;9.646;2022-07-11T11:54:24;0.40;;;0.40;;
8159;SDS011;27404;52.398;9.646;2022-07-11T11:56:51;2.72;;;0.50;;
8159;SDS011;27404;52.398;9.646;2022-07-11T11:59:17;1.52;;;0.90;;
8159;SDS011;27404;52.398;9.646;2022-07-11T12:01:43;0.95;;;0.73;;
8159;SDS011;27404;52.398;9.646;2022-07-11T12:04:11;1.57;;;0.97;;
8159;SDS011;27404;52.398;9.646;2022-07-11T12:06:40;2.25;;;0.82;;
8159;SDS011;27404;52.398;9.646;2022-07-11T12:11:38;0.97;;;0.50;;
8159;SDS011;27404;52.398;9.646;2022-07-11T12:14:06;0.90;;;0.73;;
8159;SDS011;27404;52.398;9.646;2022-07-11T12:16:42;1.97;;;0.50;;
8159;SDS011;27404;52.398;9.646;2022-07-11T12:19:16;0.70;;;0.57;;
8159;SDS011;27404;52.398;9.646;2022-07-11T12:21:50;1.40;;;0.60;;
8159;SDS011;27404;52.398;9.646;2022-07-11T12:24:22;0.60;;;0.50;;
8159;SDS011;27404;52.398;9.646;2022-07-11T12:26:54;1.00;;;0.50;;
8159;SDS011;27404;52.398;9.646;2022-07-11T12:29:20;0.90;;;0.50;;
8159;SDS011;27404;52.398;9.646;2022-07-11T12:36:47;0.45;;;0.40;;
8159;SDS011;27404;52.398;9.646;2022-07-11T12:39:26;0.65;;;0.55;;
8159;SDS011;27404;52.398;9.646;2022-07-11T12:41:54;1.05;;;0.60;;
8159;SDS011;27404;52.398;9.646;2022-07-11T12:44:22;1.48;;;0.65;;
8159;SDS011;27404;52.398;9.646;2022-07-11T12:47:10;6.07;;;1.10;;
8159;SDS011;27404;52.398;9.646;2022-07-11T12:49:36;2.10;;;1.10;;
8159;SDS011;27404;52.398;9.646;2022-07-11T12:52:04;1.60;;;1.10;;
8159;SDS011;27404;52.398;9.646;2022-07-11T12:54:30;1.40;;;1.30;;
8159;SDS011;27404;52.398;9.646;2022-07-11T12:56:58;1.57;;;0.93;;
8159;SDS011;27404;52.398;9.646;2022-07-11T12:59:24;1.80;;;0.73;;
8159;SDS011;27404;52.398;9.646;2022-07-11T13:01:58;2.30;;;0.80;;
8159;SDS011;27404;52.398;9.646;2022-07-11T13:04:30;0.60;;;0.60;;
8159;SDS011;27404;52.398;9.646;2022-07-11T13:07:45;0.70;;;0.57;;
8159;SDS011;27404;52.398;9.646;2022-07-11T13:10:07;0.63;;;0.50;;
8159;SDS011;27404;52.398;9.646;2022-07-11T13:12:34;0.70;;;0.50;;
8159;SDS011;27404;52.398;9.646;2022-07-11T13:15:00;1.60;;;0.60;;
8159;SDS011;27404;52.398;9.646;2022-07-11T13:17:39;0.70;;;0.70;;
8159;SDS011;27404;52.398;9.646;2022-07-11T13:20:09;1.27;;;0.70;;
8159;SDS011;27404;52.398;9.646;2022-07-11T13:22:38;0.93;;;0.60;;
8159;SDS011;27404;52.398;9.646;2022-07-11T13:25:04;0.70;;;0.55;;
8159;SDS011;27404;52.398;9.646;2022-07-11T13:27:31;2.60;;;0.73;;
8159;SDS011;27404;52.398;9.646;2022-07-11T13:29:57;1.17;;;0.70;;
8159;SDS011;27404;52.398;9.646;2022-07-11T13:32:23;1.70;;;0.73;;
8159;SDS011;27404;52.398;9.646;2022-07-11T13:34:48;1.77;;;0.80;;
8159;SDS011;27404;52.398;9.646;2022-07-11T13:37:16;1.02;;;0.77;;
8159;SDS011;27404;52.398;9.646;2022-07-11T13:39:43;0.95;;;0.80;;
8159;SDS011;27404;52.398;9.646;2022-07-11T13:42:09;1.05;;;0.85;;
8159;SDS011;27404;52.398;9.646;2022-07-11T13:44:34;2.63;;;1.50;;
8159;SDS011;27404;52.398;9.646;2022-07-11T13:47:00;3.17;;;2.10;;
8159;SDS011;27404;52.398;9.646;2022-07-11T13:49:26;2.53;;;2.13;;
8159;SDS011;27404;52.398;9.646;2022-07-11T13:51:51;2.93;;;2.00;;
8159;SDS011;27404;52.398;9.646;2022-07-11T13:54:17;2.70;;;2.03;;
8159;SDS011;27404;52.398;9.646;2022-07-11T13:56:43;3.70;;;2.50;;
8159;SDS011;27404;52.398;9.646;2022-07-11T13:59:08;2.67;;;2.47;;
8159;SDS011;27404;52.398;9.646;2022-07-11T14:01:34;2.40;;;2.20;;
8159;SDS011;27404;52.398;9.646;2022-07-11T14:03:59;3.57;;;2.20;;
8159;SDS011;27404;52.398;9.646;2022-07-11T14:06:25;2.20;;;2.00;;
8159;SDS011;27404;52.398;9.646;2022-07-11T14:08:50;2.00;;;1.80;;
8159;SDS011;27404;52.398;9.646;2022-07-11T14:11:16;2.40;;;1.97;;
8159;SDS011;27404;52.398;9.646;2022-07-11T14:13:41;1.70;;;1.60;;
8159;SDS011;27404;52.398;9.646;2022-07-11T14:16:07;1.80;;;1.50;;
8159;SDS011;27404;52.398;9.646;2022-07-11T14:18:32;1.80;;;1.40;;
8159;SDS011;27404;52.398;9.646;2022-07-11T14:20:58;1.70;;;1.20;;
8159;SDS011;27404;52.398;9.646;2022-07-11T14:23:23;1.23;;;1.10;;
8159;SDS011;27404;52.398;9.646;2022-07-11T14:25:50;1.50;;;1.40;;
8159;SDS011;27404;52.398;9.646;2022-07-11T14:28:16;1.97;;;1.10;;
8159;SDS011;27404;52.398;9.646;2022-07-11T14:30:43;1.43;;;1.20;;
8159;SDS011;27404;52.398;9.646;2022-07-11T14:33:09;3.20;;;1.07;;
8159;SDS011;27404;52.398;9.646;2022-07-11T14:35:34;2.33;;;1.20;;
8159;SDS011;27404;52.398;9.646;2022-07-11T14:38:00;2.50;;;1.20;;
8159;SDS011;27404;52.398;9.646;2022-07-11T14:40:26;1.60;;;1.10;;
8159;SDS011;27404;52.398;9.646;2022-07-11T14:42:52;1.30;;;1.03;;
8159;SDS011;27404;52.398;9.646;2022-07-11T14:45:17;2.30;;;1.47;;
8159;SDS011;27404;52.398;9.646;2022-07-11T14:47:44;2.63;;;1.50;;
8159;SDS011;27404;52.398;9.646;2022-07-11T14:50:09;2.70;;;1.27;;
8159;SDS011;27404;52.398;9.646;2022-07-11T14:52:35;1.50;;;1.03;;
8159;SDS011;27404;52.398;9.646;2022-07-11T14:55:00;2.43;;;1.23;;
8159;SDS011;27404;52.398;9.646;2022-07-11T14:57:26;1.80;;;1.10;;
8159;SDS011;27404;52.398;9.646;2022-07-11T14:59:52;1.57;;;1.10;;
8159;SDS011;27404;52.398;9.646;2022-07-11T15:02:17;1.73;;;1.10;;
8159;SDS011;27404;52.398;9.646;2022-07-11T15:05:03;1.63;;;1.10;;
8159;SDS011;27404;52.398;9.646;2022-07-11T15:07:28;2.00;;;1.30;;
8159;SDS011;27404;52.398;9.646;2022-07-11T15:10:12;2.20;;;1.60;;
8159;SDS011;27404;52.398;9.646;2022-07-11T15:12:56;2.30;;;1.50;;
8159;SDS011;27404;52.398;9.646;2022-07-11T15:15:22;2.03;;;1.43;;
8159;SDS011;27404;52.398;9.646;2022-07-11T15:17:47;2.53;;;1.50;;
8159;SDS011;27404;52.398;9.646;2022-07-11T15:20:14;1.63;;;1.20;;
8159;SDS011;27404;52.398;9.646;2022-07-11T15:22:39;2.50;;;1.20;;
8159;SDS011;27404;52.398;9.646;2022-07-11T15:25:05;1.80;;;1.00;;
8159;SDS011;27404;52.398;9.646;2022-07-11T15:27:30;1.40;;;1.10;;
8159;SDS011;27404;52.398;9.646;2022-07-11T15:29:56;1.47;;;0.97;;
8159;SDS011;27404;52.398;9.646;2022-07-11T15:32:21;1.90;;;1.10;;
8159;SDS011;27404;52.398;9.646;2022-07-11T15:34:47;1.13;;;1.00;;
8159;SDS011;27404;52.398;9.646;2022-07-11T15:37:12;1.03;;;0.70;;
8159;SDS011;27404;52.398;9.646;2022-07-11T15:39:38;1.07;;;0.87;;
8159;SDS011;27404;52.398;9.646;2022-07-11T15:42:05;1.43;;;0.80;;
8159;SDS011;27404;52.398;9.646;2022-07-11T15:44:30;1.43;;;0.87;;
8159;SDS011;27404;52.398;9.646;2022-07-11T15:46:56;1.23;;;0.97;;